sensor_id;sensor_type;location;lat;lon;timestamp;P1;durP1;ratioP1;P2;durP2;ratioP2
11608;SDS011;5860;52.018;8.536;2023-07-16T00:00:27;4.70;;;1.65;;
11608;SDS011;5860;52.018;8.536;2023-07-16T00:02:54;3.00;;;1.35;;
11608;SDS011;5860;52.018;8.536;2023-07-16T00:05:21;3.50;;;1.67;;
11608;SDS011;5860;52.018;8.536;2023-07-16T00:07:49;3.60;;;1.93;;
11608;SDS011;5860;52.018;8.536;2023-07-16T00:10:16;3.07;;;2.00;;
11608;SDS011;5860;52.018;8.536;2023-07-16T00:12:43;3.47;;;1.70;;
11608;SDS011;5860;52.018;8.536;2023-07-16T00:15:10;2.63;;;1.50;;
11608;SDS011;5860;52.018;8.536;2023-07-16T00:17:37;2.93;;;1.67;;
11608;SDS011;5860;52.018;8.536;2023-07-16T00:20:04;2.40;;;1.50;;
11608;SDS011;5860;52.018;8.536;2023-07-16T00:22:32;2.30;;;1.50;;
11608;SDS011;5860;52.018;8.536;2023-07-16T00:24:59;2.17;;;1.40;;
11608;SDS011;5860;52.018;8.536;2023-07-16T00:27:26;4.13;;;1.70;;
11608;SDS011;5860;52.018;8.536;2023-07-16T00:29:53;2.63;;;1.37;;
11608;SDS011;5860;52.018;8.536;2023-07-16T00:32:20;2.37;;;1.43;;
11608;SDS011;5860;52.018;8.536;2023-07-16T00:34:46;2.50;;;1.50;;
11608;SDS011;5860;52.018;8.536;2023-07-16T00:37:13;3.37;;;1.83;;
11608;SDS011;5860;52.018;8.536;2023-07-16T00:39:40;2.53;;;1.60;;
11608;SDS011;5860;52.018;8.536;2023-07-16T00:42:07;2.67;;;1.83;;
11608;SDS011;5860;52.018;8.536;2023-07-16T00:44:34;4.80;;;2.17;;
11608;SDS011;5860;52.018;8.536;2023-07-16T00:47:01;2.97;;;1.60;;
11608;SDS011;5860;52.018;8.536;2023-07-16T00:49:29;2.10;;;1.40;;
11608;SDS011;5860;52.018;8.536;2023-07-16T00:51:56;3.43;;;1.50;;
11608;SDS011;5860;52.018;8.536;2023-07-16T00:54:24;2.03;;;1.57;;
11608;SDS011;5860;52.018;8.536;2023-07-16T00:56:51;3.03;;;1.80;;
11608;SDS011;5860;52.018;8.536;2023-07-16T00:59:18;2.77;;;1.70;;
11608;SDS011;5860;52.018;8.536;2023-07-16T01:01:45;2.80;;;1.67;;
11608;SDS011;5860;52.018;8.536;2023-07-16T01:04:12;4.10;;;1.80;;
11608;SDS011;5860;52.018;8.536;2023-07-16T01:06:40;6.37;;;1.73;;
11608;SDS011;5860;52.018;8.536;2023-07-16T01:09:11;3.67;;;1.77;;
11608;SDS011;5860;52.018;8.536;2023-07-16T01:11:44;3.93;;;1.77;;
11608;SDS011;5860;52.018;8.536;2023-07-16T01:14:16;3.63;;;1.70;;
11608;SDS011;5860;52.018;8.536;2023-07-16T01:16:44;5.13;;;1.87;;
11608;SDS011;5860;52.018;8.536;2023-07-16T01:19:12;4.53;;;1.90;;
11608;SDS011;5860;52.018;8.536;2023-07-16T01:24:39;2.67;;;1.73;;
11608;SDS011;5860;52.018;8.536;2023-07-16T01:30:16;3.57;;;1.57;;
11608;SDS011;5860;52.018;8.536;2023-07-16T01:32:46;2.83;;;1.90;;
11608;SDS011;5860;52.018;8.536;2023-07-16T01:35:14;4.53;;;1.40;;
11608;SDS011;5860;52.018;8.536;2023-07-16T01:37:41;4.70;;;1.73;;
11608;SDS011;5860;52.018;8.536;2023-07-16T01:40:09;3.93;;;1.53;;
11608;SDS011;5860;52.018;8.536;2023-07-16T01:42:37;3.63;;;1.57;;
11608;SDS011;5860;52.018;8.536;2023-07-16T01:45:12;4.13;;;2.10;;
11608;SDS011;5860;52.018;8.536;2023-07-16T01:47:48;3.70;;;1.60;;
11608;SDS011;5860;52.018;8.536;2023-07-16T01:50:36;3.93;;;1.77;;
11608;SDS011;5860;52.018;8.536;2023-07-16T01:53:03;3.83;;;1.83;;
11608;SDS011;5860;52.018;8.536;2023-07-16T01:55:29;1.87;;;1.70;;
11608;SDS011;5860;52.018;8.536;2023-07-16T01:57:57;2.10;;;1.47;;
11608;SDS011;5860;52.018;8.536;2023-07-16T02:00:23;5.50;;;1.90;;
11608;SDS011;5860;52.018;8.536;2023-07-16T02:02:50;2.83;;;1.70;;
11608;SDS011;5860;52.018;8.536;2023-07-16T02:05:17;2.97;;;1.60;;
11608;SDS011;5860;52.018;8.536;2023-07-16T02:07:44;2.40;;;1.73;;
11608;SDS011;5860;52.018;8.536;2023-07-16T02:10:11;2.80;;;1.57;;
11608;SDS011;5860;52.018;8.536;2023-07-16T02:12:38;3.33;;;1.60;;
11608;SDS011;5860;52.018;8.536;2023-07-16T02:15:05;5.47;;;1.80;;
11608;SDS011;5860;52.018;8.536;2023-07-16T02:17:32;2.60;;;1.53;;
11608;SDS011;5860;52.018;8.536;2023-07-16T02:19:59;4.77;;;1.93;;
11608;SDS011;5860;52.018;8.536;2023-07-16T02:22:26;4.20;;;1.67;;
11608;SDS011;5860;52.018;8.536;2023-07-16T02:24:53;2.60;;;1.70;;
11608;SDS011;5860;52.018;8.536;2023-07-16T02:27:20;3.37;;;2.03;;
11608;SDS011;5860;52.018;8.536;2023-07-16T02:29:47;4.73;;;2.03;;
11608;SDS011;5860;52.018;8.536;2023-07-16T02:32:14;3.43;;;1.80;;
11608;SDS011;5860;52.018;8.536;2023-07-16T02:34:41;5.10;;;1.87;;
11608;SDS011;5860;52.018;8.536;2023-07-16T02:37:08;5.13;;;2.00;;
11608;SDS011;5860;52.018;8.536;2023-07-16T02:39:35;3.67;;;1.80;;
11608;SDS011;5860;52.018;8.536;2023-07-16T02:42:02;2.77;;;1.53;;
11608;SDS011;5860;52.018;8.536;2023-07-16T02:44:29;7.17;;;2.10;;
11608;SDS011;5860;52.018;8.536;2023-07-16T02:46:56;2.60;;;1.90;;
11608;SDS011;5860;52.018;8.536;2023-07-16T02:49:23;4.07;;;1.90;;
11608;SDS011;5860;52.018;8.536;2023-07-16T02:51:50;8.83;;;2.10;;
11608;SDS011;5860;52.018;8.536;2023-07-16T02:54:17;3.80;;;1.63;;
11608;SDS011;5860;52.018;8.536;2023-07-16T02:56:43;3.37;;;1.63;;
11608;SDS011;5860;52.018;8.536;2023-07-16T03:01:38;3.17;;;1.57;;
11608;SDS011;5860;52.018;8.536;2023-07-16T03:04:05;3.63;;;1.77;;
11608;SDS011;5860;52.018;8.536;2023-07-16T03:06:32;2.07;;;1.70;;
11608;SDS011;5860;52.018;8.536;2023-07-16T03:08:59;4.60;;;1.90;;
11608;SDS011;5860;52.018;8.536;2023-07-16T03:11:25;2.30;;;1.90;;
11608;SDS011;5860;52.018;8.536;2023-07-16T03:13:52;2.97;;;1.80;;
11608;SDS011;5860;52.018;8.536;2023-07-16T03:16:19;3.13;;;1.90;;
11608;SDS011;5860;52.018;8.536;2023-07-16T03:18:46;4.37;;;2.00;;
11608;SDS011;5860;52.018;8.536;2023-07-16T03:21:13;3.73;;;1.77;;
11608;SDS011;5860;52.018;8.536;2023-07-16T03:23:40;4.97;;;2.03;;
11608;SDS011;5860;52.018;8.536;2023-07-16T03:26:07;2.53;;;1.60;;
11608;SDS011;5860;52.018;8.536;2023-07-16T03:28:34;6.10;;;2.20;;
11608;SDS011;5860;52.018;8.536;2023-07-16T03:31:01;4.20;;;2.07;;
11608;SDS011;5860;52.018;8.536;2023-07-16T03:33:28;2.97;;;1.93;;
11608;SDS011;5860;52.018;8.536;2023-07-16T03:35:55;3.33;;;2.00;;
11608;SDS011;5860;52.018;8.536;2023-07-16T03:38:22;4.53;;;2.17;;
11608;SDS011;5860;52.018;8.536;2023-07-16T03:40:49;6.67;;;2.13;;
11608;SDS011;5860;52.018;8.536;2023-07-16T03:43:16;6.30;;;2.20;;
11608;SDS011;5860;52.018;8.536;2023-07-16T03:45:43;5.83;;;2.23;;
11608;SDS011;5860;52.018;8.536;2023-07-16T03:48:11;8.67;;;2.30;;
11608;SDS011;5860;52.018;8.536;2023-07-16T03:50:38;4.50;;;2.10;;
11608;SDS011;5860;52.018;8.536;2023-07-16T03:53:08;5.20;;;2.40;;
11608;SDS011;5860;52.018;8.536;2023-07-16T03:55:35;5.10;;;1.90;;
11608;SDS011;5860;52.018;8.536;2023-07-16T03:58:02;3.10;;;1.87;;
11608;SDS011;5860;52.018;8.536;2023-07-16T04:00:29;4.57;;;2.13;;
11608;SDS011;5860;52.018;8.536;2023-07-16T04:02:56;4.93;;;2.20;;
11608;SDS011;5860;52.018;8.536;2023-07-16T04:05:23;8.83;;;2.77;;
11608;SDS011;5860;52.018;8.536;2023-07-16T04:07:50;3.83;;;2.17;;
11608;SDS011;5860;52.018;8.536;2023-07-16T04:10:18;2.90;;;1.60;;
11608;SDS011;5860;52.018;8.536;2023-07-16T04:12:45;3.73;;;1.70;;
11608;SDS011;5860;52.018;8.536;2023-07-16T04:15:12;2.40;;;1.60;;
11608;SDS011;5860;52.018;8.536;2023-07-16T04:17:39;3.53;;;1.93;;
11608;SDS011;5860;52.018;8.536;2023-07-16T04:20:06;4.90;;;1.87;;
11608;SDS011;5860;52.018;8.536;2023-07-16T04:22:34;2.85;;;1.70;;
11608;SDS011;5860;52.018;8.536;2023-07-16T04:25:01;3.72;;;1.85;;
11608;SDS011;5860;52.018;8.536;2023-07-16T04:27:29;2.05;;;1.70;;
11608;SDS011;5860;52.018;8.536;2023-07-16T04:29:56;6.50;;;1.60;;
11608;SDS011;5860;52.018;8.536;2023-07-16T04:32:22;2.97;;;1.60;;
11608;SDS011;5860;52.018;8.536;2023-07-16T04:34:49;3.65;;;1.95;;
11608;SDS011;5860;52.018;8.536;2023-07-16T04:37:16;2.90;;;1.60;;
11608;SDS011;5860;52.018;8.536;2023-07-16T04:39:43;4.43;;;1.70;;
11608;SDS011;5860;52.018;8.536;2023-07-16T04:42:10;4.85;;;1.90;;
11608;SDS011;5860;52.018;8.536;2023-07-16T04:44:37;4.63;;;2.00;;
11608;SDS011;5860;52.018;8.536;2023-07-16T04:47:03;3.78;;;1.73;;
11608;SDS011;5860;52.018;8.536;2023-07-16T04:49:31;3.97;;;1.70;;
11608;SDS011;5860;52.018;8.536;2023-07-16T04:51:59;3.20;;;1.95;;
11608;SDS011;5860;52.018;8.536;2023-07-16T04:54:26;2.10;;;1.50;;
11608;SDS011;5860;52.018;8.536;2023-07-16T04:56:53;4.07;;;1.60;;
11608;SDS011;5860;52.018;8.536;2023-07-16T04:59:20;4.65;;;1.80;;
11608;SDS011;5860;52.018;8.536;2023-07-16T05:01:47;2.80;;;1.60;;
11608;SDS011;5860;52.018;8.536;2023-07-16T05:04:14;5.30;;;2.00;;
11608;SDS011;5860;52.018;8.536;2023-07-16T05:06:40;5.82;;;1.50;;
11608;SDS011;5860;52.018;8.536;2023-07-16T05:09:07;4.05;;;1.77;;
11608;SDS011;5860;52.018;8.536;2023-07-16T05:11:34;3.17;;;1.45;;
11608;SDS011;5860;52.018;8.536;2023-07-16T05:14:03;3.30;;;2.05;;
11608;SDS011;5860;52.018;8.536;2023-07-16T05:16:30;7.03;;;2.10;;
11608;SDS011;5860;52.018;8.536;2023-07-16T05:18:57;7.55;;;2.08;;
11608;SDS011;5860;52.018;8.536;2023-07-16T05:21:24;3.60;;;1.67;;
11608;SDS011;5860;52.018;8.536;2023-07-16T05:23:51;5.90;;;1.80;;
11608;SDS011;5860;52.018;8.536;2023-07-16T05:26:18;3.08;;;1.77;;
11608;SDS011;5860;52.018;8.536;2023-07-16T05:28:45;4.75;;;1.60;;
11608;SDS011;5860;52.018;8.536;2023-07-16T05:31:12;3.63;;;1.90;;
11608;SDS011;5860;52.018;8.536;2023-07-16T05:33:38;3.15;;;1.58;;
11608;SDS011;5860;52.018;8.536;2023-07-16T05:36:06;3.47;;;1.63;;
11608;SDS011;5860;52.018;8.536;2023-07-16T05:38:33;3.22;;;1.70;;
11608;SDS011;5860;52.018;8.536;2023-07-16T05:41:01;3.33;;;1.70;;
11608;SDS011;5860;52.018;8.536;2023-07-16T05:43:29;5.45;;;1.67;;
11608;SDS011;5860;52.018;8.536;2023-07-16T05:45:55;4.35;;;1.75;;
11608;SDS011;5860;52.018;8.536;2023-07-16T05:48:23;4.45;;;2.13;;
11608;SDS011;5860;52.018;8.536;2023-07-16T05:50:51;4.13;;;1.83;;
11608;SDS011;5860;52.018;8.536;2023-07-16T05:53:17;3.22;;;1.77;;
11608;SDS011;5860;52.018;8.536;2023-07-16T05:55:44;4.40;;;2.10;;
11608;SDS011;5860;52.018;8.536;2023-07-16T05:58:11;6.00;;;1.92;;
11608;SDS011;5860;52.018;8.536;2023-07-16T06:00:38;3.05;;;1.90;;
11608;SDS011;5860;52.018;8.536;2023-07-16T06:03:05;5.60;;;2.33;;
11608;SDS011;5860;52.018;8.536;2023-07-16T06:05:33;3.70;;;2.17;;
11608;SDS011;5860;52.018;8.536;2023-07-16T06:08:00;3.80;;;2.13;;
11608;SDS011;5860;52.018;8.536;2023-07-16T06:10:28;5.07;;;1.83;;
11608;SDS011;5860;52.018;8.536;2023-07-16T06:12:55;4.22;;;2.20;;
11608;SDS011;5860;52.018;8.536;2023-07-16T06:15:22;5.78;;;2.22;;
11608;SDS011;5860;52.018;8.536;2023-07-16T06:17:48;3.72;;;2.15;;
11608;SDS011;5860;52.018;8.536;2023-07-16T06:20:16;4.88;;;1.92;;
11608;SDS011;5860;52.018;8.536;2023-07-16T06:22:43;3.67;;;2.30;;
11608;SDS011;5860;52.018;8.536;2023-07-16T06:25:10;4.75;;;2.20;;
11608;SDS011;5860;52.018;8.536;2023-07-16T06:27:37;5.60;;;2.40;;
11608;SDS011;5860;52.018;8.536;2023-07-16T06:30:04;4.78;;;2.33;;
11608;SDS011;5860;52.018;8.536;2023-07-16T06:32:32;7.68;;;2.25;;
11608;SDS011;5860;52.018;8.536;2023-07-16T06:34:59;5.07;;;2.40;;
11608;SDS011;5860;52.018;8.536;2023-07-16T06:37:26;6.20;;;2.63;;
11608;SDS011;5860;52.018;8.536;2023-07-16T06:39:52;4.78;;;2.05;;
11608;SDS011;5860;52.018;8.536;2023-07-16T06:42:19;7.35;;;2.97;;
11608;SDS011;5860;52.018;8.536;2023-07-16T06:44:46;5.50;;;2.33;;
11608;SDS011;5860;52.018;8.536;2023-07-16T06:47:13;4.57;;;2.67;;
11608;SDS011;5860;52.018;8.536;2023-07-16T06:49:40;6.45;;;2.20;;
11608;SDS011;5860;52.018;8.536;2023-07-16T06:52:07;4.50;;;2.35;;
11608;SDS011;5860;52.018;8.536;2023-07-16T06:54:34;5.65;;;2.60;;
11608;SDS011;5860;52.018;8.536;2023-07-16T06:57:01;5.30;;;2.60;;
11608;SDS011;5860;52.018;8.536;2023-07-16T06:59:28;5.85;;;3.00;;
11608;SDS011;5860;52.018;8.536;2023-07-16T07:01:55;4.75;;;2.80;;
11608;SDS011;5860;52.018;8.536;2023-07-16T07:04:22;5.55;;;2.70;;
11608;SDS011;5860;52.018;8.536;2023-07-16T07:06:49;4.70;;;2.80;;
11608;SDS011;5860;52.018;8.536;2023-07-16T07:09:16;3.58;;;2.38;;
11608;SDS011;5860;52.018;8.536;2023-07-16T07:11:43;8.35;;;3.30;;
11608;SDS011;5860;52.018;8.536;2023-07-16T07:14:11;5.20;;;3.10;;
11608;SDS011;5860;52.018;8.536;2023-07-16T07:16:37;5.20;;;2.83;;
11608;SDS011;5860;52.018;8.536;2023-07-16T07:19:06;6.78;;;3.30;;
11608;SDS011;5860;52.018;8.536;2023-07-16T07:21:34;6.70;;;3.33;;
11608;SDS011;5860;52.018;8.536;2023-07-16T07:24:01;4.80;;;3.00;;
11608;SDS011;5860;52.018;8.536;2023-07-16T07:26:28;10.15;;;3.13;;
11608;SDS011;5860;52.018;8.536;2023-07-16T07:28:55;10.95;;;2.75;;
11608;SDS011;5860;52.018;8.536;2023-07-16T07:31:21;3.85;;;2.90;;
11608;SDS011;5860;52.018;8.536;2023-07-16T07:33:49;7.93;;;3.25;;
11608;SDS011;5860;52.018;8.536;2023-07-16T07:36:15;6.65;;;2.92;;
11608;SDS011;5860;52.018;8.536;2023-07-16T07:38:43;4.43;;;2.90;;
11608;SDS011;5860;52.018;8.536;2023-07-16T07:41:10;6.45;;;3.30;;
11608;SDS011;5860;52.018;8.536;2023-07-16T07:43:36;8.00;;;3.30;;
11608;SDS011;5860;52.018;8.536;2023-07-16T07:46:03;5.45;;;2.88;;
11608;SDS011;5860;52.018;8.536;2023-07-16T07:48:30;4.03;;;2.70;;
11608;SDS011;5860;52.018;8.536;2023-07-16T07:50:57;5.05;;;2.38;;
11608;SDS011;5860;52.018;8.536;2023-07-16T07:53:24;4.97;;;2.67;;
11608;SDS011;5860;52.018;8.536;2023-07-16T07:55:51;8.68;;;2.85;;
11608;SDS011;5860;52.018;8.536;2023-07-16T07:58:18;5.80;;;2.65;;
11608;SDS011;5860;52.018;8.536;2023-07-16T08:00:47;6.70;;;2.63;;
11608;SDS011;5860;52.018;8.536;2023-07-16T08:03:17;5.93;;;2.72;;
11608;SDS011;5860;52.018;8.536;2023-07-16T08:06:02;4.88;;;2.65;;
11608;SDS011;5860;52.018;8.536;2023-07-16T08:08:50;6.32;;;3.08;;
11608;SDS011;5860;52.018;8.536;2023-07-16T08:11:20;6.85;;;3.22;;
11608;SDS011;5860;52.018;8.536;2023-07-16T08:13:47;4.93;;;2.95;;
11608;SDS011;5860;52.018;8.536;2023-07-16T08:16:16;5.55;;;3.40;;
11608;SDS011;5860;52.018;8.536;2023-07-16T08:18:43;5.88;;;3.08;;
11608;SDS011;5860;52.018;8.536;2023-07-16T08:21:10;5.65;;;3.20;;
11608;SDS011;5860;52.018;8.536;2023-07-16T08:23:42;4.00;;;3.08;;
11608;SDS011;5860;52.018;8.536;2023-07-16T08:26:09;6.47;;;3.10;;
11608;SDS011;5860;52.018;8.536;2023-07-16T08:28:35;4.10;;;2.97;;
11608;SDS011;5860;52.018;8.536;2023-07-16T08:31:02;4.90;;;3.28;;
11608;SDS011;5860;52.018;8.536;2023-07-16T08:33:29;7.28;;;3.08;;
11608;SDS011;5860;52.018;8.536;2023-07-16T08:35:56;5.93;;;3.10;;
11608;SDS011;5860;52.018;8.536;2023-07-16T08:38:23;8.60;;;3.45;;
11608;SDS011;5860;52.018;8.536;2023-07-16T08:40:50;5.65;;;3.55;;
11608;SDS011;5860;52.018;8.536;2023-07-16T08:43:16;6.28;;;3.58;;
11608;SDS011;5860;52.018;8.536;2023-07-16T08:45:45;9.40;;;3.47;;
11608;SDS011;5860;52.018;8.536;2023-07-16T08:48:12;5.40;;;3.42;;
11608;SDS011;5860;52.018;8.536;2023-07-16T08:50:40;6.40;;;3.60;;
11608;SDS011;5860;52.018;8.536;2023-07-16T08:53:08;6.50;;;3.10;;
11608;SDS011;5860;52.018;8.536;2023-07-16T08:55:36;4.55;;;2.85;;
11608;SDS011;5860;52.018;8.536;2023-07-16T08:58:04;7.45;;;3.05;;
11608;SDS011;5860;52.018;8.536;2023-07-16T09:00:32;5.72;;;3.20;;
11608;SDS011;5860;52.018;8.536;2023-07-16T09:02:59;4.40;;;3.20;;
11608;SDS011;5860;52.018;8.536;2023-07-16T09:05:26;3.88;;;2.53;;
11608;SDS011;5860;52.018;8.536;2023-07-16T09:08:05;7.38;;;3.20;;
11608;SDS011;5860;52.018;8.536;2023-07-16T09:10:33;6.10;;;3.42;;
11608;SDS011;5860;52.018;8.536;2023-07-16T09:13:00;5.47;;;3.28;;
11608;SDS011;5860;52.018;8.536;2023-07-16T09:15:28;4.68;;;3.10;;
11608;SDS011;5860;52.018;8.536;2023-07-16T09:17:56;6.95;;;3.45;;
11608;SDS011;5860;52.018;8.536;2023-07-16T09:20:23;4.72;;;2.88;;
11608;SDS011;5860;52.018;8.536;2023-07-16T09:22:53;5.40;;;3.38;;
11608;SDS011;5860;52.018;8.536;2023-07-16T09:27:57;4.97;;;3.17;;
11608;SDS011;5860;52.018;8.536;2023-07-16T09:30:30;5.97;;;3.22;;
11608;SDS011;5860;52.018;8.536;2023-07-16T09:33:12;4.45;;;2.90;;
11608;SDS011;5860;52.018;8.536;2023-07-16T09:35:41;4.68;;;2.92;;
11608;SDS011;5860;52.018;8.536;2023-07-16T09:38:08;4.55;;;3.10;;
11608;SDS011;5860;52.018;8.536;2023-07-16T09:40:39;3.88;;;3.05;;
11608;SDS011;5860;52.018;8.536;2023-07-16T09:43:09;4.25;;;3.00;;
11608;SDS011;5860;52.018;8.536;2023-07-16T09:45:39;3.28;;;2.97;;
11608;SDS011;5860;52.018;8.536;2023-07-16T09:48:10;5.45;;;2.97;;
11608;SDS011;5860;52.018;8.536;2023-07-16T09:50:37;4.45;;;2.80;;
11608;SDS011;5860;52.018;8.536;2023-07-16T09:53:12;4.40;;;2.80;;
11608;SDS011;5860;52.018;8.536;2023-07-16T09:55:41;5.03;;;3.40;;
11608;SDS011;5860;52.018;8.536;2023-07-16T09:58:09;9.07;;;3.13;;
11608;SDS011;5860;52.018;8.536;2023-07-16T10:00:37;4.80;;;3.38;;
11608;SDS011;5860;52.018;8.536;2023-07-16T10:03:07;5.65;;;2.90;;
11608;SDS011;5860;52.018;8.536;2023-07-16T10:05:37;6.18;;;3.42;;
11608;SDS011;5860;52.018;8.536;2023-07-16T10:08:05;5.65;;;3.28;;
11608;SDS011;5860;52.018;8.536;2023-07-16T10:10:42;7.55;;;3.13;;
11608;SDS011;5860;52.018;8.536;2023-07-16T10:13:12;5.13;;;3.17;;
11608;SDS011;5860;52.018;8.536;2023-07-16T10:16:01;4.13;;;3.00;;
11608;SDS011;5860;52.018;8.536;2023-07-16T10:18:28;4.60;;;2.88;;
11608;SDS011;5860;52.018;8.536;2023-07-16T10:21:06;4.47;;;3.00;;
11608;SDS011;5860;52.018;8.536;2023-07-16T10:26:07;4.07;;;2.83;;
11608;SDS011;5860;52.018;8.536;2023-07-16T10:28:36;6.68;;;3.42;;
11608;SDS011;5860;52.018;8.536;2023-07-16T10:31:04;6.03;;;3.50;;
11608;SDS011;5860;52.018;8.536;2023-07-16T10:33:34;4.22;;;3.15;;
11608;SDS011;5860;52.018;8.536;2023-07-16T10:36:04;5.63;;;3.00;;
11608;SDS011;5860;52.018;8.536;2023-07-16T10:38:40;5.47;;;3.05;;
11608;SDS011;5860;52.018;8.536;2023-07-16T10:41:08;4.85;;;3.05;;
11608;SDS011;5860;52.018;8.536;2023-07-16T10:43:36;4.00;;;2.80;;
11608;SDS011;5860;52.018;8.536;2023-07-16T10:46:03;4.22;;;3.10;;
11608;SDS011;5860;52.018;8.536;2023-07-16T10:48:32;6.72;;;3.10;;
11608;SDS011;5860;52.018;8.536;2023-07-16T10:50:59;6.63;;;3.00;;
11608;SDS011;5860;52.018;8.536;2023-07-16T10:53:26;5.60;;;3.22;;
11608;SDS011;5860;52.018;8.536;2023-07-16T10:55:53;4.53;;;3.00;;
11608;SDS011;5860;52.018;8.536;2023-07-16T10:58:20;4.50;;;3.00;;
11608;SDS011;5860;52.018;8.536;2023-07-16T11:00:47;6.30;;;3.40;;
11608;SDS011;5860;52.018;8.536;2023-07-16T11:03:15;3.95;;;3.17;;
11608;SDS011;5860;52.018;8.536;2023-07-16T11:05:45;4.70;;;2.72;;
11608;SDS011;5860;52.018;8.536;2023-07-16T11:08:21;4.97;;;2.83;;
11608;SDS011;5860;52.018;8.536;2023-07-16T11:10:55;4.13;;;3.10;;
11608;SDS011;5860;52.018;8.536;2023-07-16T11:13:30;4.70;;;3.20;;
11608;SDS011;5860;52.018;8.536;2023-07-16T11:16:07;4.68;;;3.00;;
11608;SDS011;5860;52.018;8.536;2023-07-16T11:18:35;4.90;;;3.10;;
11608;SDS011;5860;52.018;8.536;2023-07-16T11:21:02;4.70;;;3.17;;
11608;SDS011;5860;52.018;8.536;2023-07-16T11:23:33;4.40;;;2.75;;
11608;SDS011;5860;52.018;8.536;2023-07-16T11:26:01;4.80;;;3.20;;
11608;SDS011;5860;52.018;8.536;2023-07-16T11:28:36;7.32;;;3.33;;
11608;SDS011;5860;52.018;8.536;2023-07-16T11:31:14;4.13;;;3.28;;
11608;SDS011;5860;52.018;8.536;2023-07-16T11:33:44;6.90;;;2.85;;
11608;SDS011;5860;52.018;8.536;2023-07-16T11:36:12;4.18;;;3.15;;
11608;SDS011;5860;52.018;8.536;2023-07-16T11:38:39;4.30;;;2.92;;
11608;SDS011;5860;52.018;8.536;2023-07-16T11:41:07;5.97;;;2.90;;
11608;SDS011;5860;52.018;8.536;2023-07-16T11:43:34;4.38;;;3.20;;
11608;SDS011;5860;52.018;8.536;2023-07-16T11:46:03;6.85;;;3.05;;
11608;SDS011;5860;52.018;8.536;2023-07-16T11:48:31;7.22;;;3.55;;
11608;SDS011;5860;52.018;8.536;2023-07-16T11:50:58;4.35;;;3.13;;
11608;SDS011;5860;52.018;8.536;2023-07-16T11:53:25;3.83;;;3.00;;
11608;SDS011;5860;52.018;8.536;2023-07-16T11:55:53;6.18;;;3.38;;
11608;SDS011;5860;52.018;8.536;2023-07-16T11:58:19;8.27;;;3.08;;
11608;SDS011;5860;52.018;8.536;2023-07-16T12:00:46;6.55;;;3.45;;
11608;SDS011;5860;52.018;8.536;2023-07-16T12:03:13;6.55;;;3.10;;
11608;SDS011;5860;52.018;8.536;2023-07-16T12:05:40;3.75;;;3.00;;
11608;SDS011;5860;52.018;8.536;2023-07-16T12:08:19;7.22;;;3.00;;
11608;SDS011;5860;52.018;8.536;2023-07-16T12:10:46;5.13;;;3.22;;
11608;SDS011;5860;52.018;8.536;2023-07-16T12:13:13;5.90;;;3.20;;
11608;SDS011;5860;52.018;8.536;2023-07-16T12:15:40;6.85;;;3.60;;
11608;SDS011;5860;52.018;8.536;2023-07-16T12:18:07;3.47;;;3.00;;
11608;SDS011;5860;52.018;8.536;2023-07-16T12:20:34;4.30;;;2.95;;
11608;SDS011;5860;52.018;8.536;2023-07-16T12:23:02;5.57;;;3.50;;
11608;SDS011;5860;52.018;8.536;2023-07-16T12:25:29;4.85;;;3.03;;
11608;SDS011;5860;52.018;8.536;2023-07-16T12:27:56;5.53;;;3.13;;
11608;SDS011;5860;52.018;8.536;2023-07-16T12:30:24;4.18;;;2.90;;
11608;SDS011;5860;52.018;8.536;2023-07-16T12:32:51;6.32;;;3.25;;
11608;SDS011;5860;52.018;8.536;2023-07-16T12:35:18;4.70;;;2.70;;
11608;SDS011;5860;52.018;8.536;2023-07-16T12:37:46;5.07;;;3.90;;
11608;SDS011;5860;52.018;8.536;2023-07-16T12:40:12;5.30;;;3.03;;
11608;SDS011;5860;52.018;8.536;2023-07-16T12:42:39;6.78;;;3.15;;
11608;SDS011;5860;52.018;8.536;2023-07-16T12:45:06;4.80;;;2.88;;
11608;SDS011;5860;52.018;8.536;2023-07-16T12:47:33;5.72;;;3.35;;
11608;SDS011;5860;52.018;8.536;2023-07-16T12:50:01;4.95;;;3.15;;
11608;SDS011;5860;52.018;8.536;2023-07-16T12:52:28;8.20;;;3.05;;
11608;SDS011;5860;52.018;8.536;2023-07-16T12:54:55;5.32;;;3.17;;
11608;SDS011;5860;52.018;8.536;2023-07-16T12:57:24;3.85;;;2.72;;
11608;SDS011;5860;52.018;8.536;2023-07-16T12:59:51;5.30;;;2.78;;
11608;SDS011;5860;52.018;8.536;2023-07-16T13:02:18;6.50;;;2.67;;
11608;SDS011;5860;52.018;8.536;2023-07-16T13:04:45;5.05;;;2.90;;
11608;SDS011;5860;52.018;8.536;2023-07-16T13:07:12;6.35;;;2.90;;
11608;SDS011;5860;52.018;8.536;2023-07-16T13:09:39;4.50;;;2.80;;
11608;SDS011;5860;52.018;8.536;2023-07-16T13:12:06;5.80;;;2.67;;
11608;SDS011;5860;52.018;8.536;2023-07-16T13:14:34;3.88;;;2.47;;
11608;SDS011;5860;52.018;8.536;2023-07-16T13:17:01;5.88;;;2.70;;
11608;SDS011;5860;52.018;8.536;2023-07-16T13:19:30;4.70;;;2.67;;
11608;SDS011;5860;52.018;8.536;2023-07-16T13:21:57;3.55;;;2.53;;
11608;SDS011;5860;52.018;8.536;2023-07-16T13:24:24;3.72;;;2.38;;
11608;SDS011;5860;52.018;8.536;2023-07-16T13:26:52;4.10;;;2.60;;
11608;SDS011;5860;52.018;8.536;2023-07-16T13:29:19;4.55;;;2.42;;
11608;SDS011;5860;52.018;8.536;2023-07-16T13:31:46;5.32;;;2.40;;
11608;SDS011;5860;52.018;8.536;2023-07-16T13:34:13;10.48;;;2.75;;
11608;SDS011;5860;52.018;8.536;2023-07-16T13:36:40;5.35;;;2.83;;
11608;SDS011;5860;52.018;8.536;2023-07-16T13:39:06;3.63;;;2.45;;
11608;SDS011;5860;52.018;8.536;2023-07-16T13:41:34;3.88;;;2.60;;
11608;SDS011;5860;52.018;8.536;2023-07-16T13:44:01;4.65;;;2.40;;
11608;SDS011;5860;52.018;8.536;2023-07-16T13:46:28;3.40;;;1.95;;
11608;SDS011;5860;52.018;8.536;2023-07-16T13:48:55;3.95;;;2.53;;
11608;SDS011;5860;52.018;8.536;2023-07-16T13:51:25;6.32;;;2.47;;
11608;SDS011;5860;52.018;8.536;2023-07-16T13:53:52;6.50;;;2.63;;
11608;SDS011;5860;52.018;8.536;2023-07-16T13:56:19;5.10;;;2.45;;
11608;SDS011;5860;52.018;8.536;2023-07-16T13:58:46;2.55;;;2.00;;
11608;SDS011;5860;52.018;8.536;2023-07-16T14:01:14;3.83;;;2.38;;
11608;SDS011;5860;52.018;8.536;2023-07-16T14:03:41;4.72;;;2.42;;
11608;SDS011;5860;52.018;8.536;2023-07-16T14:06:08;3.42;;;2.33;;
11608;SDS011;5860;52.018;8.536;2023-07-16T14:08:35;3.97;;;2.58;;
11608;SDS011;5860;52.018;8.536;2023-07-16T14:11:02;6.18;;;2.80;;
11608;SDS011;5860;52.018;8.536;2023-07-16T14:13:29;5.90;;;2.90;;
11608;SDS011;5860;52.018;8.536;2023-07-16T14:15:56;4.55;;;2.80;;
11608;SDS011;5860;52.018;8.536;2023-07-16T14:18:24;4.38;;;2.67;;
11608;SDS011;5860;52.018;8.536;2023-07-16T14:20:51;4.53;;;2.40;;
11608;SDS011;5860;52.018;8.536;2023-07-16T14:23:18;5.05;;;2.65;;
11608;SDS011;5860;52.018;8.536;2023-07-16T14:25:45;4.72;;;2.55;;
11608;SDS011;5860;52.018;8.536;2023-07-16T14:28:12;5.00;;;2.55;;
11608;SDS011;5860;52.018;8.536;2023-07-16T14:30:39;5.28;;;2.40;;
11608;SDS011;5860;52.018;8.536;2023-07-16T14:33:06;2.92;;;2.50;;
11608;SDS011;5860;52.018;8.536;2023-07-16T14:35:33;5.53;;;2.67;;
11608;SDS011;5860;52.018;8.536;2023-07-16T14:38:04;4.63;;;2.92;;
11608;SDS011;5860;52.018;8.536;2023-07-16T14:40:31;3.40;;;2.58;;
11608;SDS011;5860;52.018;8.536;2023-07-16T14:42:58;3.95;;;2.42;;
11608;SDS011;5860;52.018;8.536;2023-07-16T14:45:25;4.28;;;2.53;;
11608;SDS011;5860;52.018;8.536;2023-07-16T14:47:54;3.50;;;2.47;;
11608;SDS011;5860;52.018;8.536;2023-07-16T14:50:21;5.10;;;2.83;;
11608;SDS011;5860;52.018;8.536;2023-07-16T14:52:48;5.95;;;2.75;;
11608;SDS011;5860;52.018;8.536;2023-07-16T14:55:15;4.95;;;2.50;;
11608;SDS011;5860;52.018;8.536;2023-07-16T14:57:42;4.97;;;2.92;;
11608;SDS011;5860;52.018;8.536;2023-07-16T15:00:10;6.45;;;2.53;;
11608;SDS011;5860;52.018;8.536;2023-07-16T15:02:38;3.47;;;2.60;;
11608;SDS011;5860;52.018;8.536;2023-07-16T15:05:05;5.25;;;2.85;;
11608;SDS011;5860;52.018;8.536;2023-07-16T15:07:34;3.92;;;2.55;;
11608;SDS011;5860;52.018;8.536;2023-07-16T15:10:04;4.07;;;2.92;;
11608;SDS011;5860;52.018;8.536;2023-07-16T15:12:32;4.88;;;2.65;;
11608;SDS011;5860;52.018;8.536;2023-07-16T15:14:59;3.58;;;2.50;;
11608;SDS011;5860;52.018;8.536;2023-07-16T15:17:26;5.65;;;2.70;;